Time;durP1;ratioP1;P1;durP2;ratioP2;P2;SDS_P1;SDS_P2;PMS_P1;PMS_P2;Temp;Humidity;BMP_temperature;BMP_pressure;BME280_temperature;BME280_humidity;BME280_pressure;Samples;Min_cycle;Max_cycle;Signal;HPM_P1;HPM_P2
2022/07/06 00:01:58;;;;;;;8.73;7.93;;;;;;;21.98;73.87;94863.28;5117420;28;20188;-73
2022/07/06 00:04:25;;;;;;;8.02;7.32;;;;;;;21.95;74.19;94864.94;5117657;28;20210;-73
2022/07/06 00:06:52;;;;;;;8.40;7.70;;;;;;;21.94;74.13;94871.00;5117108;28;20661;-73
2022/07/06 00:09:19;;;;;;;8.30;7.50;;;;;;;21.93;73.56;94863.78;5117600;28;20176;-73
2022/07/06 00:11:45;;;;;;;8.18;7.47;;;;;;;21.95;73.28;94869.75;5117523;28;20211;-73
2022/07/06 00:14:14;;;;;;;9.38;8.30;;;;;;;21.94;73.28;94866.16;5116945;28;20202;-73
2022/07/06 00:16:40;;;;;;;8.32;7.63;;;;;;;21.92;73.84;94868.59;5117275;28;20604;-73
2022/07/06 00:19:07;;;;;;;7.43;6.78;;;;;;;21.91;74.33;94875.44;5117517;28;20195;-73
2022/07/06 00:21:34;;;;;;;8.85;8.05;;;;;;;21.93;73.22;94880.63;5116429;28;20195;-73
2022/07/06 00:24:01;;;;;;;8.85;8.05;;;;;;;21.93;72.79;94878.59;5117032;28;20192;-73
2022/07/06 00:26:28;;;;;;;8.00;7.20;;;;;;;21.97;72.47;94881.34;5116374;28;20191;-73
2022/07/06 00:28:55;;;;;;;8.30;7.50;;;;;;;21.94;72.21;94890.66;5117273;28;20187;-73
2022/07/06 00:31:23;;;;;;;7.95;7.25;;;;;;;21.92;71.74;94899.47;5117202;28;20188;-73
2022/07/06 00:33:49;;;;;;;7.97;7.18;;;;;;;21.94;71.63;94901.88;5117074;28;20223;-73
2022/07/06 00:36:16;;;;;;;8.27;7.50;;;;;;;21.88;71.68;94904.38;5116756;27;20218;-73
2022/07/06 00:38:43;;;;;;;8.38;7.68;;;;;;;21.81;71.66;94896.88;5115818;28;20191;-73
2022/07/06 00:41:10;;;;;;;8.85;8.00;;;;;;;21.79;71.76;94901.34;5115794;28;20223;-72
2022/07/06 00:43:50;;;;;;;8.98;8.18;;;;;;;21.74;72.47;94899.03;5115862;28;20198;-72
2022/07/06 00:46:17;;;;;;;8.75;7.85;;;;;;;21.69;72.98;94902.34;5116629;28;20191;-72
2022/07/06 00:48:45;;;;;;;8.18;7.43;;;;;;;21.65;72.91;94898.81;5116056;28;20221;-72
2022/07/06 00:51:13;;;;;;;8.70;7.90;;;;;;;21.63;73.24;94899.22;5115405;28;20228;-72
2022/07/06 00:53:41;;;;;;;8.48;7.78;;;;;;;21.63;73.16;94890.81;5116532;28;20175;-72
2022/07/06 00:56:08;;;;;;;7.55;6.95;;;;;;;21.58;73.58;94880.88;5116369;28;20211;-72
2022/07/06 00:58:35;;;;;;;8.15;7.45;;;;;;;21.56;73.41;94876.91;5116850;28;20191;-72
2022/07/06 01:01:01;;;;;;;7.97;7.18;;;;;;;21.57;74.06;94867.28;5116568;28;20215;-72
2022/07/06 01:03:28;;;;;;;7.72;7.13;;;;;;;21.56;73.52;94855.25;5116665;28;20243;-72
2022/07/06 01:05:56;;;;;;;8.32;7.53;;;;;;;21.53;74.13;94852.50;5116490;28;20187;-72
2022/07/06 01:08:24;;;;;;;8.10;7.40;;;;;;;21.51;74.46;94844.53;5116008;28;20218;-72
2022/07/06 01:10:51;;;;;;;8.80;7.95;;;;;;;21.48;74.37;94842.56;5115810;28;20187;-72
2022/07/06 01:13:18;;;;;;;8.73;7.88;;;;;;;21.42;74.35;94844.28;5115293;28;20199;-72
2022/07/06 01:15:45;;;;;;;8.40;7.68;;;;;;;21.41;74.71;94853.13;5116613;28;20192;-72
2022/07/06 01:18:12;;;;;;;9.73;7.80;;;;;;;21.36;74.70;94851.63;5115532;28;20190;-72
2022/07/06 01:20:40;;;;;;;8.40;7.70;;;;;;;21.32;75.17;94848.84;5115590;28;20235;-72
2022/07/06 01:23:07;;;;;;;10.02;7.70;;;;;;;21.31;75.30;94846.47;5115522;28;20203;-72
2022/07/06 01:25:34;;;;;;;8.07;7.35;;;;;;;21.32;75.21;94853.69;5116369;28;20194;-72
2022/07/06 01:28:00;;;;;;;8.95;8.13;;;;;;;21.30;75.29;94856.09;5116181;28;20187;-72
2022/07/06 01:30:27;;;;;;;8.65;7.85;;;;;;;21.28;75.02;94852.91;5115173;28;20196;-72
2022/07/06 01:32:54;;;;;;;8.00;7.30;;;;;;;21.27;74.97;94848.53;5115365;28;20196;-72
2022/07/06 01:35:21;;;;;;;7.97;7.28;;;;;;;21.24;75.21;94849.38;5115753;28;20188;-73
2022/07/06 01:37:50;;;;;;;8.50;7.75;;;;;;;21.23;75.67;94850.63;5115910;28;20191;-73
2022/07/06 01:40:16;;;;;;;8.60;7.43;;;;;;;21.20;74.85;94854.28;5114978;28;20694;-73
2022/07/06 01:42:43;;;;;;;8.15;7.35;;;;;;;21.19;74.78;94852.69;5115757;28;20191;-73
2022/07/06 01:45:11;;;;;;;9.27;8.32;;;;;;;21.16;75.08;94846.72;5115604;28;20592;-73
2022/07/06 01:47:38;;;;;;;8.50;7.80;;;;;;;21.13;75.13;94850.38;5115838;28;20210;-73
2022/07/06 01:50:07;;;;;;;8.40;7.70;;;;;;;21.11;74.63;94850.00;5116186;28;20206;-72
2022/07/06 01:52:34;;;;;;;7.50;6.80;;;;;;;21.07;73.45;94848.50;5115869;28;20232;-72
2022/07/06 01:55:02;;;;;;;7.57;6.97;;;;;;;21.03;74.22;94858.97;5116177;28;20184;-72
2022/07/06 01:57:29;;;;;;;7.63;7.03;;;;;;;20.99;73.64;94864.66;5115145;28;20196;-72
2022/07/06 01:59:56;;;;;;;8.57;7.70;;;;;;;20.97;73.53;94855.84;5115733;28;20215;-72
2022/07/06 02:02:23;;;;;;;7.05;6.40;;;;;;;20.97;73.67;94852.25;5114486;28;20191;-72
2022/07/06 02:04:49;;;;;;;8.75;6.82;;;;;;;20.96;72.94;94861.91;5116065;28;20198;-72
2022/07/06 02:07:16;;;;;;;7.57;6.97;;;;;;;20.92;73.96;94861.97;5114912;28;20542;-72
2022/07/06 02:09:43;;;;;;;7.38;6.78;;;;;;;20.91;73.80;94855.56;5115355;28;20184;-72
2022/07/06 02:12:11;;;;;;;7.45;6.60;;;;;;;20.94;72.61;94856.69;5115048;28;20188;-72
2022/07/06 02:14:38;;;;;;;7.38;6.80;;;;;;;20.93;73.16;94857.94;5115817;28;20184;-72
2022/07/06 02:17:05;;;;;;;6.85;6.22;;;;;;;20.91;72.62;94855.56;5115292;28;20183;-72
2022/07/06 02:19:32;;;;;;;7.07;6.53;;;;;;;20.89;72.79;94860.78;5115112;28;20191;-72
2022/07/06 02:21:58;;;;;;;6.90;6.40;;;;;;;20.90;72.96;94858.78;5114738;28;20187;-72
2022/07/06 02:24:25;;;;;;;6.53;6.03;;;;;;;20.91;72.27;94851.94;5114714;28;20196;-72
2022/07/06 02:26:52;;;;;;;6.60;6.00;;;;;;;20.92;71.06;94850.75;5114195;28;20204;-72
2022/07/06 02:29:21;;;;;;;6.68;6.07;;;;;;;20.94;70.85;94855.91;5117031;28;20179;-72
2022/07/06 02:31:48;;;;;;;6.68;6.18;;;;;;;20.96;70.32;94843.06;5119662;27;20242;-72
2022/07/06 02:34:14;;;;;;;6.60;6.00;;;;;;;20.99;69.92;94852.63;5118761;28;20211;-72
2022/07/06 02:36:41;;;;;;;6.75;6.15;;;;;;;21.00;69.54;94852.22;5119464;28;20188;-72
2022/07/06 02:39:08;;;;;;;6.57;5.90;;;;;;;21.03;68.98;94847.75;5119415;28;20287;-72
2022/07/06 02:41:35;;;;;;;5.80;5.40;;;;;;;21.01;68.88;94842.56;5119236;28;20208;-72
2022/07/06 02:44:01;;;;;;;6.07;5.57;;;;;;;21.02;68.75;94843.34;5118987;28;20196;-72
2022/07/06 02:46:29;;;;;;;6.10;5.53;;;;;;;21.03;68.52;94833.75;5119225;28;20203;-72
2022/07/06 02:48:57;;;;;;;6.47;5.88;;;;;;;21.00;69.35;94840.19;5119169;28;20183;-72
2022/07/06 02:51:24;;;;;;;6.93;6.25;;;;;;;21.02;69.28;94846.16;5118120;28;20303;-72
2022/07/06 02:53:51;;;;;;;7.05;6.45;;;;;;;21.00;69.86;94837.41;5118096;28;20192;-72
2022/07/06 02:56:18;;;;;;;6.60;6.00;;;;;;;20.97;68.78;94839.03;5118112;28;20274;-72
2022/07/06 02:58:44;;;;;;;7.05;5.82;;;;;;;21.00;68.24;94845.81;5119120;28;20199;-72
2022/07/06 03:01:11;;;;;;;6.80;6.30;;;;;;;21.02;68.49;94846.16;5118594;28;20211;-72
2022/07/06 03:03:39;;;;;;;6.55;5.95;;;;;;;21.01;69.29;94848.19;5118443;28;20196;-72
2022/07/06 03:06:07;;;;;;;7.05;6.45;;;;;;;21.00;69.58;94851.41;5118202;28;20512;-72
2022/07/06 03:08:34;;;;;;;6.40;5.80;;;;;;;21.01;68.67;94853.78;5117893;28;20200;-72
2022/07/06 03:11:01;;;;;;;6.22;5.72;;;;;;;21.04;68.53;94858.53;5118644;28;20184;-72
2022/07/06 03:13:28;;;;;;;6.55;5.95;;;;;;;21.06;69.44;94858.09;5117975;28;20211;-72
2022/07/06 03:15:55;;;;;;;6.82;6.22;;;;;;;20.99;70.73;94861.03;5118057;28;20219;-72
2022/07/06 03:18:22;;;;;;;5.63;5.13;;;;;;;20.91;71.20;94863.16;5117822;28;20200;-72
2022/07/06 03:21:09;;;;;;;6.63;6.00;;;;;;;20.87;70.92;94863.22;5118304;28;20269;-72
2022/07/06 03:23:35;;;;;;;6.35;5.68;;;;;;;20.88;68.66;94869.63;5118234;28;20211;-72
2022/07/06 03:26:02;;;;;;;6.20;5.70;;;;;;;20.90;67.71;94864.38;5118513;28;20196;-73
2022/07/06 03:28:29;;;;;;;5.60;5.10;;;;;;;20.92;67.63;94867.56;5117724;28;20200;-72
2022/07/06 03:30:56;;;;;;;5.68;5.22;;;;;;;20.92;67.37;94875.97;5118190;28;20195;-72
2022/07/06 03:33:22;;;;;;;5.57;5.07;;;;;;;20.92;66.85;94881.59;5117164;28;20208;-73
2022/07/06 03:35:51;;;;;;;5.50;5.10;;;;;;;20.91;67.79;94886.41;5116924;28;20202;-73
2022/07/06 03:38:17;;;;;;;6.25;5.70;;;;;;;20.91;68.42;94891.19;5117065;28;20214;-73
2022/07/06 03:40:44;;;;;;;5.90;5.32;;;;;;;20.92;67.18;94890.78;5117666;28;20215;-73
2022/07/06 03:43:11;;;;;;;6.57;5.80;;;;;;;20.95;66.63;94886.31;5117404;28;20188;-72
2022/07/06 03:45:38;;;;;;;5.72;5.18;;;;;;;20.95;68.36;94891.91;5117087;28;20195;-72
2022/07/06 03:48:05;;;;;;;6.18;5.40;;;;;;;20.91;68.92;94894.00;5117376;28;20192;-73
2022/07/06 03:50:32;;;;;;;6.15;5.57;;;;;;;20.92;68.00;94899.19;5117918;28;20220;-73
2022/07/06 03:53:00;;;;;;;6.28;5.57;;;;;;;20.89;68.11;94880.41;5118111;28;20191;-72
2022/07/06 03:55:27;;;;;;;5.22;4.82;;;;;;;20.90;67.66;94886.81;5116647;28;20623;-72
2022/07/06 03:57:54;;;;;;;6.20;5.28;;;;;;;20.91;66.74;94885.59;5117548;28;20603;-72
2022/07/06 04:00:21;;;;;;;5.72;5.20;;;;;;;20.94;66.65;94892.34;5117778;28;20195;-73
2022/07/06 04:02:47;;;;;;;5.28;4.88;;;;;;;20.93;67.29;94894.38;5116710;28;20679;-74
2022/07/06 04:05:15;;;;;;;5.50;4.90;;;;;;;20.96;67.76;94895.53;5116942;28;20206;-72
2022/07/06 04:07:42;;;;;;;5.32;4.90;;;;;;;20.96;66.92;94901.94;5117206;28;20229;-72
2022/07/06 04:10:11;;;;;;;5.63;5.07;;;;;;;20.96;67.14;94899.13;5116935;28;20191;-72
2022/07/06 04:12:41;;;;;;;5.63;5.13;;;;;;;20.93;67.93;94905.59;5116690;28;20195;-72
2022/07/06 04:15:08;;;;;;;7.45;4.97;;;;;;;20.91;67.41;94900.41;5117390;28;20191;-72
2022/07/06 04:17:53;;;;;;;5.65;5.05;;;;;;;20.91;68.07;94896.78;5116579;28;20199;-72
2022/07/06 04:20:20;;;;;;;5.88;5.05;;;;;;;20.93;67.11;94899.97;5117611;28;20180;-73
2022/07/06 04:22:47;;;;;;;6.78;5.45;;;;;;;20.97;67.08;94902.72;5117444;28;20250;-71
2022/07/06 04:25:16;;;;;;;5.70;5.20;;;;;;;20.99;67.60;94901.09;5116661;28;20200;-72
2022/07/06 04:27:43;;;;;;;5.93;4.97;;;;;;;20.96;68.28;94904.75;5116197;28;20655;-72
2022/07/06 04:30:11;;;;;;;5.97;5.32;;;;;;;20.96;68.17;94912.38;5117214;28;20191;-72
2022/07/06 04:32:38;;;;;;;6.57;5.65;;;;;;;20.97;68.03;94913.94;5116800;28;20196;-72
2022/07/06 04:35:06;;;;;;;5.65;4.75;;;;;;;20.97;69.05;94917.53;5117120;28;20179;-72
2022/07/06 04:37:33;;;;;;;5.47;4.97;;;;;;;20.97;68.78;94923.13;5116986;28;20184;-72
2022/07/06 04:40:00;;;;;;;6.30;5.25;;;;;;;21.03;68.56;94926.28;5116323;28;20568;-72
2022/07/06 04:42:28;;;;;;;5.85;5.35;;;;;;;21.03;68.09;94935.47;5115932;28;20214;-72
2022/07/06 04:44:55;;;;;;;7.43;5.95;;;;;;;21.04;67.60;94939.06;5116623;28;20192;-72
2022/07/06 04:47:22;;;;;;;8.80;7.22;;;;;;;21.03;67.40;94948.69;5116058;28;20570;-72
2022/07/06 04:49:49;;;;;;;8.25;7.45;;;;;;;20.98;67.60;94951.97;5116002;28;20202;-73
2022/07/06 04:52:16;;;;;;;8.35;7.47;;;;;;;20.94;67.66;94962.44;5115904;28;20227;-72
2022/07/06 04:54:43;;;;;;;9.60;8.68;;;;;;;20.89;68.08;94963.72;5116573;28;20206;-72
2022/07/06 04:57:09;;;;;;;8.95;8.07;;;;;;;20.83;67.86;94971.00;5115840;28;20191;-72
2022/07/06 04:59:37;;;;;;;9.52;8.63;;;;;;;20.74;67.83;94967.94;5116567;28;20191;-72
2022/07/06 05:02:04;;;;;;;9.90;9.00;;;;;;;20.71;67.94;94963.97;5115792;28;20297;-71
2022/07/06 05:04:31;;;;;;;11.23;9.65;;;;;;;20.71;67.98;94968.78;5116519;28;20195;-70
2022/07/06 05:06:58;;;;;;;9.55;8.45;;;;;;;20.69;68.46;94971.97;5115585;28;20214;-71
2022/07/06 05:09:25;;;;;;;10.88;9.85;;;;;;;20.71;68.82;94972.38;5116529;28;20192;-71
2022/07/06 05:11:52;;;;;;;11.05;9.95;;;;;;;20.72;68.50;94978.75;5116409;28;20184;-72
2022/07/06 05:14:19;;;;;;;9.82;8.93;;;;;;;20.71;68.28;94975.16;5116145;28;20184;-72
2022/07/06 05:16:47;;;;;;;11.30;10.13;;;;;;;20.71;68.68;94988.41;5115922;28;20211;-72
2022/07/06 05:19:14;;;;;;;10.95;9.85;;;;;;;20.69;68.62;94991.59;5115547;28;20207;-72
2022/07/06 05:21:41;;;;;;;11.63;10.55;;;;;;;20.72;69.19;94990.75;5115092;28;20253;-72
2022/07/06 05:24:08;;;;;;;12.07;10.88;;;;;;;20.71;68.40;94982.78;5115510;28;20506;-72
2022/07/06 05:26:35;;;;;;;10.85;9.55;;;;;;;20.68;68.46;94990.81;5115322;28;20188;-71
2022/07/06 05:29:02;;;;;;;9.85;9.02;;;;;;;20.66;68.68;94990.44;5115437;28;20199;-72
2022/07/06 05:31:29;;;;;;;10.40;9.30;;;;;;;20.67;68.19;94986.44;5116191;28;20187;-70
2022/07/06 05:33:57;;;;;;;9.48;8.65;;;;;;;20.67;68.38;94986.44;5115674;28;20198;-71
2022/07/06 05:36:23;;;;;;;10.20;9.00;;;;;;;20.70;68.42;94996.00;5115640;28;20588;-72
2022/07/06 05:38:50;;;;;;;8.93;8.02;;;;;;;20.72;68.56;95001.97;5116082;28;20184;-71
2022/07/06 05:41:17;;;;;;;9.63;8.15;;;;;;;20.77;68.71;94997.91;5114752;28;20231;-71
2022/07/06 05:43:44;;;;;;;8.70;7.80;;;;;;;20.80;68.17;95000.66;5115532;28;20559;-71
2022/07/06 05:46:10;;;;;;;8.93;8.13;;;;;;;20.79;68.66;94993.47;5116249;28;20187;-74
2022/07/06 05:51:22;;;;;;;10.38;8.60;;;;;;;20.78;69.04;95002.31;5115665;28;20215;-72
2022/07/06 05:53:49;;;;;;;9.88;8.85;;;;;;;20.76;68.50;94999.91;5115752;28;20199;-72
2022/07/06 05:56:16;;;;;;;9.13;8.23;;;;;;;20.76;68.29;95005.53;5115774;28;20507;-71
2022/07/06 05:58:43;;;;;;;8.60;7.72;;;;;;;20.75;68.25;95000.34;5115718;28;20184;-72
2022/07/06 06:01:10;;;;;;;8.60;7.78;;;;;;;20.71;67.76;94996.81;5115355;28;20208;-72
2022/07/06 06:03:37;;;;;;;8.88;7.50;;;;;;;20.68;68.04;95002.00;5115044;28;20210;-71
2022/07/06 06:06:04;;;;;;;8.10;7.38;;;;;;;20.67;68.73;95002.44;5115707;28;20194;-72
2022/07/06 06:08:32;;;;;;;8.85;7.95;;;;;;;20.68;69.02;95007.63;5114422;28;20187;-72
2022/07/06 06:10:59;;;;;;;8.90;7.43;;;;;;;20.68;68.66;94999.22;5115325;28;20513;-72
2022/07/06 06:13:26;;;;;;;8.50;7.70;;;;;;;20.70;68.41;94998.81;5114535;28;20532;-72
2022/07/06 06:15:53;;;;;;;9.05;7.13;;;;;;;20.76;69.21;94994.31;5115566;28;20184;-72
2022/07/06 06:18:19;;;;;;;8.63;7.45;;;;;;;20.80;69.34;94997.06;5114641;28;20205;-72
2022/07/06 06:20:46;;;;;;;10.30;9.35;;;;;;;20.89;69.10;94997.34;5114525;28;20199;-72
2022/07/06 06:23:18;;;;;;;8.80;8.00;;;;;;;21.00;69.80;94991.59;5115384;28;20235;-72
2022/07/06 06:25:46;;;;;;;9.27;8.48;;;;;;;20.97;69.93;94987.63;5114215;28;20203;-72
2022/07/06 06:28:13;;;;;;;9.63;8.75;;;;;;;20.94;69.89;94994.06;5115095;28;20193;-72
2022/07/06 06:30:40;;;;;;;9.80;8.95;;;;;;;20.96;70.06;94990.84;5114510;28;20195;-71
2022/07/06 06:33:08;;;;;;;10.25;9.25;;;;;;;20.97;70.14;94992.44;5114635;28;20207;-71
2022/07/06 06:35:35;;;;;;;9.80;8.90;;;;;;;21.00;71.07;94986.78;5114543;28;20195;-71
2022/07/06 06:38:02;;;;;;;10.43;9.43;;;;;;;21.00;70.72;94988.78;5114646;28;20199;-72
2022/07/06 06:40:29;;;;;;;10.40;9.50;;;;;;;20.96;70.42;94991.66;5114549;28;20207;-71
2022/07/06 06:42:57;;;;;;;11.15;10.10;;;;;;;20.96;69.94;94985.25;5114113;28;20226;-71
2022/07/06 06:45:24;;;;;;;10.95;10.00;;;;;;;21.01;69.99;94988.34;5114460;28;20205;-71
2022/07/06 06:47:51;;;;;;;11.05;9.57;;;;;;;21.03;69.34;94983.13;5114040;28;20195;-73
2022/07/06 06:50:18;;;;;;;10.25;9.35;;;;;;;21.05;69.01;94977.09;5114602;28;20192;-72
2022/07/06 06:52:45;;;;;;;10.35;9.35;;;;;;;21.09;69.61;94981.41;5113927;28;20243;-72
2022/07/06 06:55:12;;;;;;;12.15;10.90;;;;;;;21.18;68.61;94982.94;5114220;28;20608;-72
2022/07/06 06:57:38;;;;;;;10.25;9.32;;;;;;;21.18;68.69;94974.50;5115198;28;20187;-72
2022/07/06 07:00:09;;;;;;;12.65;11.43;;;;;;;21.15;68.11;94982.53;5114957;28;20530;-72
2022/07/06 07:02:36;;;;;;;12.23;11.13;;;;;;;21.12;68.38;94983.38;5115344;28;20219;-72
2022/07/06 07:05:03;;;;;;;11.68;10.48;;;;;;;21.09;67.98;94977.84;5115187;28;20195;-72
2022/07/06 07:07:30;;;;;;;11.10;10.07;;;;;;;21.11;68.42;94979.00;5114179;28;20199;-72
2022/07/06 07:09:57;;;;;;;11.85;10.80;;;;;;;21.12;69.04;94977.78;5114664;28;20608;-71
2022/07/06 07:12:23;;;;;;;12.32;11.23;;;;;;;21.13;68.85;94976.59;5113737;28;20210;-72
2022/07/06 07:14:50;;;;;;;11.48;10.38;;;;;;;21.14;69.44;94983.78;5114043;28;20195;-71
2022/07/06 07:17:18;;;;;;;11.35;10.32;;;;;;;21.16;69.82;94980.53;5116447;28;20213;-71
2022/07/06 07:19:45;;;;;;;12.65;11.45;;;;;;;21.17;69.95;94973.72;5117426;28;20204;-71
2022/07/06 07:22:12;;;;;;;12.90;11.63;;;;;;;21.18;69.13;94980.91;5117577;28;20230;-71
2022/07/06 07:24:39;;;;;;;11.80;10.57;;;;;;;21.18;69.34;94972.50;5117230;28;20207;-72
2022/07/06 07:27:06;;;;;;;11.80;10.70;;;;;;;21.22;68.24;94978.84;5117494;28;20195;-71
2022/07/06 07:29:33;;;;;;;11.93;10.68;;;;;;;21.25;68.53;94980.00;5118248;28;20191;-71
2022/07/06 07:31:59;;;;;;;12.93;11.82;;;;;;;21.29;67.93;94981.53;5118537;28;20192;-71
2022/07/06 07:34:28;;;;;;;12.70;11.50;;;;;;;21.29;68.14;94983.56;5117437;28;20203;-71
2022/07/06 07:36:55;;;;;;;11.43;10.30;;;;;;;21.33;68.61;94981.47;5117381;28;20192;-71
2022/07/06 07:39:21;;;;;;;12.10;11.10;;;;;;;21.32;68.16;94974.28;5117011;28;20210;-72
2022/07/06 07:41:50;;;;;;;12.27;11.20;;;;;;;21.30;68.27;94974.69;5118008;28;20688;-72
2022/07/06 07:44:17;;;;;;;12.43;11.32;;;;;;;21.30;68.29;94971.09;5117779;28;20211;-72
2022/07/06 07:46:44;;;;;;;12.13;11.02;;;;;;;21.34;68.41;94980.28;5117981;28;20188;-71
2022/07/06 07:49:11;;;;;;;12.05;10.95;;;;;;;21.39;68.86;94983.41;5116747;28;20211;-71
2022/07/06 07:51:41;;;;;;;12.85;11.70;;;;;;;21.42;67.88;94978.16;5117437;28;20239;-71
2022/07/06 07:54:08;;;;;;;12.80;11.60;;;;;;;21.43;67.63;94974.94;5117910;28;20211;-71
2022/07/06 07:56:35;;;;;;;15.88;12.85;;;;;;;21.48;67.96;94976.47;5117073;28;20192;-71
2022/07/06 07:59:02;;;;;;;13.70;12.35;;;;;;;21.51;67.36;94976.41;5117047;28;20203;-71
2022/07/06 08:01:28;;;;;;;13.90;12.65;;;;;;;21.51;67.27;94972.81;5117380;28;20180;-71
2022/07/06 08:03:55;;;;;;;13.48;12.25;;;;;;;21.57;68.22;94973.91;5117754;28;20184;-72
2022/07/06 08:06:22;;;;;;;13.50;12.30;;;;;;;21.57;67.29;94974.72;5117669;28;20278;-71
2022/07/06 08:08:50;;;;;;;12.77;11.50;;;;;;;21.59;68.18;94972.25;5116456;28;20207;-71
2022/07/06 08:11:17;;;;;;;12.30;11.20;;;;;;;21.68;67.75;94977.34;5116724;28;20195;-73
2022/07/06 08:13:44;;;;;;;13.13;11.93;;;;;;;21.81;67.55;94980.31;5117255;28;20202;-72
2022/07/06 08:16:12;;;;;;;12.50;11.48;;;;;;;21.82;66.89;94973.47;5116804;28;20199;-72
2022/07/06 08:18:39;;;;;;;12.50;11.30;;;;;;;21.92;67.50;94972.47;5116866;28;20203;-72
2022/07/06 08:21:06;;;;;;;13.20;11.90;;;;;;;22.00;66.99;94971.13;5116269;28;20199;-72
2022/07/06 08:23:34;;;;;;;14.10;12.73;;;;;;;22.03;65.98;94972.28;5116475;28;20203;-72
2022/07/06 08:26:02;;;;;;;12.52;11.23;;;;;;;22.05;66.86;94972.66;5117360;28;20265;-72
2022/07/06 08:28:29;;;;;;;12.77;11.57;;;;;;;22.10;66.03;94964.50;5116204;28;20195;-72
2022/07/06 08:30:57;;;;;;;11.35;10.35;;;;;;;22.16;65.70;94964.06;5116288;28;20596;-72
2022/07/06 08:33:24;;;;;;;12.68;11.43;;;;;;;22.17;65.64;94968.44;5117184;28;20182;-71
2022/07/06 08:35:51;;;;;;;11.93;10.70;;;;;;;22.25;65.93;94967.06;5116184;28;20191;-71
2022/07/06 08:38:17;;;;;;;12.10;10.98;;;;;;;22.44;65.61;94969.13;5117023;28;20180;-71
2022/07/06 08:40:47;;;;;;;12.13;11.05;;;;;;;22.48;65.64;94964.22;5116647;28;20199;-71
2022/07/06 08:43:15;;;;;;;12.75;11.60;;;;;;;22.55;65.79;94964.06;5115776;28;20219;-71
2022/07/06 08:45:43;;;;;;;12.30;11.20;;;;;;;22.50;64.51;94964.56;5115900;28;20210;-71
2022/07/06 08:48:11;;;;;;;11.45;10.35;;;;;;;22.42;64.71;94956.72;5116022;28;20180;-71
2022/07/06 08:50:39;;;;;;;13.30;12.00;;;;;;;22.38;65.27;94970.06;5116584;28;20199;-71
2022/07/06 08:53:06;;;;;;;12.40;11.23;;;;;;;22.40;64.78;94959.94;5115935;28;20199;-73
2022/07/06 08:55:33;;;;;;;12.73;11.43;;;;;;;22.40;64.48;94965.56;5115441;28;20599;-73
2022/07/06 08:58:00;;;;;;;12.55;11.45;;;;;;;22.53;65.93;94957.28;5115722;28;20188;-73
2022/07/06 09:00:28;;;;;;;11.75;10.55;;;;;;;22.54;64.98;94972.91;5116305;28;20195;-73
2022/07/06 09:02:56;;;;;;;13.10;11.80;;;;;;;22.59;65.06;94972.44;5115236;28;20208;-73
2022/07/06 09:05:24;;;;;;;13.02;11.82;;;;;;;22.63;65.11;94970.34;5116199;28;20227;-73
2022/07/06 09:07:53;;;;;;;13.50;12.30;;;;;;;22.65;63.85;94970.69;5116559;28;20291;-72
2022/07/06 09:10:21;;;;;;;12.98;11.85;;;;;;;22.63;64.33;94973.13;5116464;28;20199;-73
2022/07/06 09:12:48;;;;;;;13.05;11.82;;;;;;;22.72;65.08;94962.09;5116101;28;20180;-73
2022/07/06 09:15:16;;;;;;;12.13;10.95;;;;;;;22.83;65.17;94961.84;5115453;28;20203;-73
2022/07/06 09:17:44;;;;;;;13.70;11.20;;;;;;;22.91;64.64;94963.28;5116016;28;20195;-72
2022/07/06 09:20:13;;;;;;;12.27;11.07;;;;;;;22.90;63.55;94966.53;5115897;28;20195;-72
2022/07/06 09:22:40;;;;;;;12.10;10.90;;;;;;;22.93;64.14;94966.50;5116124;28;20222;-72
2022/07/06 09:25:08;;;;;;;12.45;11.35;;;;;;;22.89;61.86;94970.59;5116098;28;20192;-71
2022/07/06 09:27:39;;;;;;;12.25;11.05;;;;;;;22.79;62.70;94966.78;5116103;28;20192;-71
2022/07/06 09:30:07;;;;;;;11.98;10.88;;;;;;;22.79;62.72;94966.78;5115208;28;20195;-71
2022/07/06 09:32:39;;;;;;;11.45;10.45;;;;;;;22.77;63.59;94958.00;5116224;28;20218;-71
2022/07/06 09:35:08;;;;;;;12.63;11.32;;;;;;;22.83;64.45;94967.47;5115669;28;20191;-71
2022/07/06 09:37:35;;;;;;;12.23;11.02;;;;;;;22.97;64.87;94972.03;5115086;28;20184;-71
2022/07/06 09:40:16;;;;;;;13.30;12.00;;;;;;;22.99;64.36;94961.94;5114213;28;20207;-70
2022/07/06 09:42:43;;;;;;;14.23;12.88;;;;;;;22.93;63.45;94966.50;5115898;28;20207;-71
2022/07/06 09:45:10;;;;;;;14.57;13.23;;;;;;;22.88;62.88;94963.38;5115016;28;20192;-71
2022/07/06 09:47:37;;;;;;;13.82;12.52;;;;;;;22.89;61.54;94957.31;5114267;28;20203;-71
2022/07/06 09:50:07;;;;;;;13.30;12.00;;;;;;;22.99;63.99;94945.06;5115880;28;20257;-71
2022/07/06 09:52:35;;;;;;;13.90;12.48;;;;;;;23.25;63.55;94945.28;5115767;28;20231;-71
2022/07/06 09:55:02;;;;;;;14.82;13.32;;;;;;;23.30;62.25;94944.75;5115787;28;20187;-71
2022/07/06 09:57:28;;;;;;;14.25;12.85;;;;;;;23.31;63.02;94949.13;5115665;28;20187;-71
2022/07/06 09:59:55;;;;;;;14.60;13.20;;;;;;;23.29;62.28;94948.78;5116207;28;20180;-71
2022/07/06 10:02:22;;;;;;;13.90;12.70;;;;;;;23.16;61.81;94951.50;5115696;28;20211;-71
2022/07/06 10:04:49;;;;;;;15.55;14.05;;;;;;;23.15;61.84;94954.75;5115740;28;20184;-71
2022/07/06 10:07:17;;;;;;;14.35;12.98;;;;;;;23.03;61.37;94953.41;5114843;28;20191;-71
2022/07/06 10:09:46;;;;;;;15.20;13.80;;;;;;;22.99;62.13;94952.72;5114633;28;20194;-71
2022/07/06 10:12:13;;;;;;;15.00;13.70;;;;;;;23.04;62.66;94952.19;5115618;28;20196;-71
2022/07/06 10:14:41;;;;;;;14.15;12.77;;;;;;;23.06;62.47;94950.53;5114903;28;20200;-71
2022/07/06 10:17:08;;;;;;;15.00;13.40;;;;;;;23.19;62.55;94939.38;5115521;28;20188;-71
2022/07/06 10:19:36;;;;;;;15.02;13.63;;;;;;;23.36;63.25;94947.84;5115514;28;20184;-72
2022/07/06 10:22:05;;;;;;;14.23;12.93;;;;;;;23.49;61.50;94929.81;5115171;28;20245;-72
2022/07/06 10:24:39;;;;;;;14.15;12.82;;;;;;;23.59;62.28;94938.41;5115064;28;20669;-72
2022/07/06 10:27:06;;;;;;;14.70;13.18;;;;;;;23.72;61.88;94930.88;5114352;28;20202;-72
2022/07/06 10:29:33;;;;;;;16.13;14.65;;;;;;;23.81;62.12;94935.88;5115662;28;20191;-71
2022/07/06 10:32:01;;;;;;;14.77;13.38;;;;;;;23.87;60.62;94925.66;5115423;28;20190;-71
2022/07/06 10:34:28;;;;;;;12.90;9.88;;;;;;;23.93;60.10;94929.50;5115634;28;20179;-71
2022/07/06 10:36:55;;;;;;;14.25;12.85;;;;;;;23.98;59.93;94934.59;5114988;28;20191;-71
2022/07/06 10:42:45;;;;;;;14.75;12.93;;;;;;;24.08;59.78;94927.91;5115238;28;20243;-71
2022/07/06 10:45:13;;;;;;;15.55;13.77;;;;;;;24.19;60.34;94919.16;5114443;28;20203;-72
2022/07/06 10:47:41;;;;;;;14.30;12.80;;;;;;;24.31;59.70;94918.38;5114406;28;20537;-72
2022/07/06 10:50:08;;;;;;;14.52;13.20;;;;;;;24.42;58.96;94926.56;5115235;28;20188;-72
2022/07/06 10:52:52;;;;;;;14.10;12.80;;;;;;;24.48;56.78;94936.84;5118220;28;20242;-72
2022/07/06 10:55:34;;;;;;;14.05;12.65;;;;;;;24.53;58.32;94923.44;5119256;28;20199;-72
2022/07/06 10:58:01;;;;;;;15.15;13.65;;;;;;;24.56;57.05;94926.16;5118779;28;20191;-72
2022/07/06 11:00:48;;;;;;;14.88;13.02;;;;;;;24.65;59.66;94920.63;5118229;28;20191;-72
2022/07/06 11:03:31;;;;;;;15.52;13.95;;;;;;;24.76;57.72;94923.13;5118907;28;20222;-72
2022/07/06 11:05:59;;;;;;;13.82;12.50;;;;;;;24.83;57.04;94930.59;5117884;28;20204;-72
2022/07/06 11:08:42;;;;;;;16.55;14.95;;;;;;;24.88;56.41;94919.56;5118838;28;20202;-72
2022/07/06 11:11:16;;;;;;;15.27;13.88;;;;;;;24.86;56.05;94916.38;5117867;28;20200;-72
2022/07/06 11:13:53;;;;;;;15.63;14.13;;;;;;;24.89;56.58;94923.16;5117815;28;20195;-72
2022/07/06 11:16:22;;;;;;;16.90;15.30;;;;;;;24.93;55.67;94921.03;5118328;28;20655;-72
2022/07/06 11:18:49;;;;;;;16.75;14.10;;;;;;;24.97;55.62;94911.19;5118610;28;20187;-71
2022/07/06 11:21:21;;;;;;;16.50;15.05;;;;;;;25.07;54.79;94916.97;5118564;28;20192;-71
2022/07/06 11:23:49;;;;;;;14.60;13.20;;;;;;;25.03;53.38;94914.25;5118402;28;20231;-72
2022/07/06 11:26:18;;;;;;;16.55;14.95;;;;;;;25.04;54.91;94907.38;5117875;28;20594;-71
2022/07/06 11:28:47;;;;;;;15.60;14.10;;;;;;;25.04;54.58;94909.41;5117558;28;20196;-72
2022/07/06 11:31:15;;;;;;;16.33;14.82;;;;;;;25.12;56.38;94916.44;5117658;28;20249;-72
2022/07/06 11:33:42;;;;;;;18.40;16.63;;;;;;;25.14;53.48;94908.31;5118340;28;20193;-72
2022/07/06 11:36:16;;;;;;;16.08;14.73;;;;;;;25.17;53.87;94907.41;5117130;28;20526;-72